createdAt,value
2023-03-27T00:01:12.049Z,5.29
2023-03-27T00:03:40.425Z,5.23
2023-03-27T00:06:09.478Z,5.19
2023-03-27T00:08:39.447Z,5.02
2023-03-27T00:11:08.208Z,4.93
2023-03-27T00:13:36.573Z,4.96
2023-03-27T00:16:16.422Z,4.98
2023-03-27T00:18:45.081Z,5.01
2023-03-27T00:21:12.081Z,5.04
2023-03-27T00:23:39.056Z,5.09
2023-03-27T00:26:06.193Z,5.13
2023-03-27T00:28:33.177Z,5.12
2023-03-27T00:31:00.582Z,5.16
2023-03-27T00:33:27.901Z,5.15
2023-03-27T00:35:55.036Z,5.13
2023-03-27T00:38:22.490Z,5.03
2023-03-27T00:40:51.045Z,5.08
2023-03-27T00:43:23.993Z,5.02
2023-03-27T00:45:52.919Z,5.03
2023-03-27T00:48:20.816Z,5.04
2023-03-27T00:50:49.951Z,5.02
2023-03-27T00:53:18.254Z,5.01
2023-03-27T00:55:47.249Z,5.04
2023-03-27T00:58:17.785Z,5.07
2023-03-27T01:00:44.921Z,5.11
2023-03-27T01:03:12.067Z,5.09
2023-03-27T01:05:39.491Z,5.06
2023-03-27T01:08:06.413Z,5.03
2023-03-27T01:10:44.482Z,5.02
2023-03-27T01:13:24.087Z,4.98
2023-03-27T01:15:54.759Z,4.96
2023-03-27T01:18:24.697Z,4.90
2023-03-27T01:20:54.712Z,4.95
2023-03-27T01:23:59.559Z,5.03
2023-03-27T01:26:35.850Z,5.08
2023-03-27T01:29:22.536Z,5.05
2023-03-27T01:32:25.444Z,5.04
2023-03-27T01:35:01.175Z,4.98
2023-03-27T01:37:50.487Z,4.99
2023-03-27T01:40:27.039Z,4.87
2023-03-27T01:43:06.173Z,4.94
2023-03-27T01:45:45.684Z,5.05
2023-03-27T01:48:31.331Z,5.10
2023-03-27T01:51:01.960Z,5.07
2023-03-27T01:53:35.006Z,4.99
2023-03-27T01:56:10.659Z,4.99
2023-03-27T01:58:46.323Z,4.86
2023-03-27T02:01:17.272Z,4.85
2023-03-27T02:03:46.445Z,4.97
2023-03-27T02:06:20.018Z,4.93
2023-03-27T02:08:48.756Z,4.95
2023-03-27T02:11:18.752Z,4.96
2023-03-27T02:13:50.456Z,4.89
2023-03-27T02:16:20.732Z,4.85
2023-03-27T02:18:54.496Z,4.74
2023-03-27T02:21:23.696Z,4.75
2023-03-27T02:23:51.882Z,4.74
2023-03-27T02:26:19.293Z,4.70
2023-03-27T02:28:48.873Z,4.67
2023-03-27T02:31:32.196Z,4.58
2023-03-27T02:34:21.763Z,4.53
2023-03-27T02:37:03.976Z,4.51
2023-03-27T02:39:58.240Z,4.55
2023-03-27T02:42:38.291Z,4.59
2023-03-27T02:45:15.889Z,4.61
2023-03-27T02:47:49.200Z,4.54
2023-03-27T02:50:27.264Z,4.48
2023-03-27T02:53:02.562Z,4.38
2023-03-27T02:55:33.443Z,4.39
2023-03-27T02:58:04.105Z,4.40
2023-03-27T03:00:51.064Z,4.33
2023-03-27T03:03:43.981Z,4.23
2023-03-27T03:06:34.086Z,4.21
2023-03-27T03:09:02.501Z,4.23
2023-03-27T03:11:29.967Z,4.29
2023-03-27T03:13:57.318Z,4.37
2023-03-27T03:16:24.441Z,4.44
2023-03-27T03:18:52.036Z,4.43
2023-03-27T03:21:19.235Z,4.45
2023-03-27T03:23:57.528Z,4.45
2023-03-27T03:26:30.279Z,4.44
2023-03-27T03:29:01.051Z,4.38
2023-03-27T03:31:43.596Z,4.30
2023-03-27T03:34:16.374Z,4.27
2023-03-27T03:36:45.133Z,4.20
2023-03-27T03:39:12.909Z,4.17
2023-03-27T03:41:40.648Z,4.17
2023-03-27T03:44:08.274Z,4.20
2023-03-27T03:46:35.430Z,4.24
2023-03-27T03:49:02.627Z,4.27
2023-03-27T03:51:31.494Z,4.20
2023-03-27T03:53:58.738Z,4.18
2023-03-27T03:56:27.960Z,4.16
2023-03-27T03:58:55.222Z,4.17
2023-03-27T04:01:23.202Z,4.13
2023-03-27T04:03:55.485Z,3.94
2023-03-27T04:06:25.783Z,4.00
2023-03-27T04:08:58.699Z,3.99
2023-03-27T04:11:52.276Z,3.93
2023-03-27T04:14:48.443Z,3.99
2023-03-27T04:17:33.843Z,4.05
2023-03-27T04:20:02.808Z,4.16
2023-03-27T04:22:29.990Z,4.24
2023-03-27T04:24:57.790Z,4.33
2023-03-27T04:27:30.527Z,4.37
2023-03-27T04:30:16.404Z,4.43
2023-03-27T04:33:02.192Z,4.56
2023-03-27T04:36:06.249Z,4.62
2023-03-27T04:38:57.712Z,4.67
2023-03-27T04:41:24.978Z,4.61
2023-03-27T04:43:52.769Z,4.62
2023-03-27T04:46:19.967Z,4.58
2023-03-27T04:48:52.744Z,4.56
2023-03-27T04:51:32.613Z,4.48
2023-03-27T04:54:07.627Z,4.59
2023-03-27T04:59:22.811Z,4.69
2023-03-27T05:02:11.102Z,4.74
2023-03-27T05:04:49.013Z,4.71
2023-03-27T05:07:21.702Z,4.63
2023-03-27T05:09:48.629Z,4.60
2023-03-27T05:12:15.788Z,4.71
2023-03-27T05:14:52.961Z,4.75
2023-03-27T05:17:44.241Z,4.74
2023-03-27T05:20:14.721Z,4.69
2023-03-27T05:22:42.350Z,4.71
2023-03-27T05:25:30.231Z,4.62
2023-03-27T05:27:58.629Z,4.61
2023-03-27T05:30:29.455Z,4.53
2023-03-27T05:33:18.059Z,4.50
2023-03-27T05:35:48.609Z,4.47
2023-03-27T05:38:16.707Z,4.55
2023-03-27T05:41:04.286Z,4.53
2023-03-27T05:43:35.215Z,4.51
2023-03-27T05:46:02.995Z,4.49
2023-03-27T05:48:30.503Z,4.52
2023-03-27T05:51:01.211Z,4.55
2023-03-27T05:53:30.883Z,4.55
2023-03-27T05:56:28.575Z,4.63
2023-03-27T06:05:04.646Z,4.60
2023-03-27T06:07:37.001Z,4.68
2023-03-27T06:42:36.822Z,5.04
2023-03-27T06:48:26.807Z,5.06
2023-03-27T06:50:58.099Z,5.05
2023-03-27T06:53:28.174Z,5.07
2023-03-27T06:59:08.067Z,4.99
2023-03-27T07:01:35.423Z,4.96
2023-03-27T07:04:37.903Z,5.03
2023-03-27T07:07:23.458Z,5.09
2023-03-27T07:09:51.056Z,5.23
2023-03-27T07:12:22.743Z,5.26
2023-03-27T07:14:50.387Z,5.30
2023-03-27T07:17:18.538Z,5.38
2023-03-27T07:19:55.300Z,5.56
2023-03-27T07:22:25.369Z,5.77
2023-03-27T07:25:02.802Z,5.83
2023-03-27T07:27:37.712Z,5.80
2023-03-27T07:30:08.502Z,5.89
2023-03-27T07:32:37.876Z,5.94
2023-03-27T07:35:09.441Z,5.91
2023-03-27T07:37:57.553Z,5.99
2023-03-27T07:40:53.708Z,6.05
2023-03-27T07:43:41.310Z,6.21
2023-03-27T07:46:12.989Z,6.21
2023-03-27T07:48:41.576Z,6.18
2023-03-27T07:51:17.359Z,6.12
2023-03-27T07:53:45.153Z,6.18
2023-03-27T07:56:20.298Z,6.23
2023-03-27T07:58:48.151Z,6.30
2023-03-27T08:01:20.208Z,6.31
2023-03-27T08:03:49.221Z,6.42
2023-03-27T08:06:19.985Z,6.54
2023-03-27T08:08:50.024Z,6.62
2023-03-27T08:11:29.707Z,6.68
2023-03-27T08:14:00.065Z,6.74
2023-03-27T08:16:30.387Z,6.76
2023-03-27T08:19:01.477Z,6.85
2023-03-27T08:21:32.187Z,6.87
2023-03-27T08:24:01.228Z,6.75
2023-03-27T08:26:33.649Z,6.62
2023-03-27T08:29:04.232Z,6.47
2023-03-27T08:31:33.639Z,6.31
2023-03-27T08:34:05.010Z,6.11
2023-03-27T08:36:58.373Z,6.17
2023-03-27T08:39:38.919Z,6.33
2023-03-27T08:42:08.553Z,6.36
2023-03-27T08:44:39.306Z,6.42
2023-03-27T08:47:16.289Z,6.55
2023-03-27T08:49:59.730Z,6.69
2023-03-27T08:52:33.581Z,6.92
2023-03-27T08:55:06.409Z,7.11
2023-03-27T08:57:38.312Z,7.23
2023-03-27T09:00:18.864Z,7.16
2023-03-27T09:03:00.420Z,7.05
2023-03-27T09:05:36.713Z,6.99
2023-03-27T09:08:08.484Z,6.86
2023-03-27T09:10:43.941Z,7.01
2023-03-27T09:13:49.930Z,7.03
2023-03-27T09:16:24.312Z,7.17
2023-03-27T09:19:17.946Z,7.13
2023-03-27T09:21:55.663Z,7.14
2023-03-27T09:24:46.805Z,7.15
2023-03-27T09:27:50.003Z,7.12
2023-03-27T09:30:37.664Z,7.27
2023-03-27T09:33:13.991Z,7.32
2023-03-27T09:35:44.080Z,7.44
2023-03-27T09:38:32.451Z,7.30
2023-03-27T09:41:24.626Z,7.32
2023-03-27T09:43:55.566Z,7.52
2023-03-27T09:46:24.299Z,7.58
2023-03-27T09:48:59.304Z,7.60
2023-03-27T09:51:40.840Z,7.61
2023-03-27T09:54:15.324Z,7.76
2023-03-27T09:56:54.186Z,7.82
2023-03-27T09:59:26.304Z,7.84
2023-03-27T10:01:57.344Z,7.88
2023-03-27T10:04:26.108Z,7.97
2023-03-27T10:07:02.060Z,7.97
2023-03-27T10:10:08.565Z,8.05
2023-03-27T10:12:56.086Z,7.88
2023-03-27T10:18:28.383Z,8.09
2023-03-27T10:21:16.812Z,8.14
2023-03-27T10:23:46.527Z,8.24
2023-03-27T10:26:27.840Z,8.28
2023-03-27T10:28:58.737Z,8.35
2023-03-27T10:31:38.286Z,8.20
2023-03-27T10:34:30.860Z,8.08
2023-03-27T10:37:28.723Z,8.10
2023-03-27T10:40:22.505Z,8.14
2023-03-27T10:42:59.636Z,8.32
2023-03-27T10:45:26.922Z,8.34
2023-03-27T10:48:02.729Z,8.53
2023-03-27T10:50:34.493Z,8.65
2023-03-27T10:53:21.334Z,8.77
2023-03-27T10:56:04.365Z,8.73
2023-03-27T10:58:49.704Z,8.80
2023-03-27T11:01:23.174Z,8.70
2023-03-27T11:03:59.985Z,8.47
2023-03-27T11:06:30.890Z,8.42
2023-03-27T11:09:05.985Z,8.51
2023-03-27T11:11:52.406Z,8.49
2023-03-27T11:14:45.059Z,8.39
2023-03-27T11:17:18.793Z,8.33
2023-03-27T11:20:11.456Z,8.32
2023-03-27T11:23:00.131Z,8.25
2023-03-27T11:25:42.402Z,8.22
2023-03-27T11:28:28.451Z,8.08
2023-03-27T11:31:11.577Z,8.02
2023-03-27T11:33:41.564Z,8.10
2023-03-27T11:36:30.103Z,8.12
2023-03-27T11:39:20.109Z,8.14
2023-03-27T11:41:59.318Z,8.18
2023-03-27T11:44:26.816Z,8.20
2023-03-27T11:47:19.913Z,8.28
2023-03-27T11:49:55.434Z,8.36
2023-03-27T11:52:41.263Z,8.41
2023-03-27T11:55:27.254Z,8.45
2023-03-27T11:58:13.232Z,8.35
2023-03-27T12:00:54.677Z,8.21
2023-03-27T12:03:25.019Z,8.15
2023-03-27T12:06:02.571Z,8.18
2023-03-27T12:08:45.913Z,8.15
2023-03-27T12:11:13.666Z,8.07
2023-03-27T12:14:13.963Z,7.95
2023-03-27T12:17:07.510Z,7.87
2023-03-27T12:19:55.612Z,7.93
2023-03-27T12:22:41.967Z,7.93
2023-03-27T12:25:20.319Z,7.95
2023-03-27T12:27:56.172Z,7.95
2023-03-27T12:30:52.450Z,8.04
2023-03-27T12:33:26.317Z,8.08
2023-03-27T12:35:56.101Z,8.13
2023-03-27T12:38:27.309Z,8.24
2023-03-27T12:41:08.742Z,8.23
2023-03-27T12:43:56.220Z,8.38
2023-03-27T12:46:34.637Z,8.63
2023-03-27T12:49:07.995Z,8.66
2023-03-27T12:51:56.435Z,8.63
2023-03-27T12:55:01.793Z,8.60
2023-03-27T12:57:51.729Z,8.57
2023-03-27T13:00:31.348Z,8.42
2023-03-27T13:03:05.281Z,8.36
2023-03-27T13:05:35.716Z,8.37
2023-03-27T13:08:20.556Z,8.31
2023-03-27T13:11:28.066Z,8.22
2023-03-27T13:14:15.330Z,8.18
2023-03-27T13:16:42.618Z,8.22
2023-03-27T13:19:48.485Z,8.29
2023-03-27T13:22:21.815Z,8.24
2023-03-27T13:25:01.915Z,8.28
2023-03-27T13:27:50.568Z,8.22
2023-03-27T13:30:37.245Z,8.16
2023-03-27T13:33:29.523Z,8.15
2023-03-27T13:36:32.616Z,8.05
2023-03-27T13:39:04.866Z,8.06
2023-03-27T13:41:53.104Z,8.10
2023-03-27T13:44:45.495Z,8.14
2023-03-27T13:47:40.307Z,8.19
2023-03-27T13:50:21.181Z,8.20
2023-03-27T13:52:48.253Z,8.40
2023-03-27T13:55:28.146Z,8.88
2023-03-27T13:58:33.964Z,9.01
2023-03-27T14:01:22.882Z,8.79
2023-03-27T14:03:59.577Z,8.61
2023-03-27T14:06:31.970Z,8.45
2023-03-27T14:09:08.137Z,8.32
2023-03-27T14:11:55.455Z,8.35
2023-03-27T14:14:51.547Z,8.52
2023-03-27T14:17:42.772Z,8.97
2023-03-27T14:20:27.490Z,9.38
2023-03-27T14:23:02.135Z,9.78
2023-03-27T14:25:44.083Z,9.95
2023-03-27T14:28:34.995Z,9.44
2023-03-27T14:31:07.303Z,9.11
2023-03-27T14:34:02.543Z,8.94
2023-03-27T14:36:52.252Z,9.34
2023-03-27T14:39:38.018Z,9.69
2023-03-27T14:42:16.602Z,9.69
2023-03-27T14:45:18.153Z,9.59
2023-03-27T14:47:48.873Z,9.19
2023-03-27T14:50:17.972Z,8.88
2023-03-27T14:52:50.221Z,8.64
2023-03-27T14:55:19.958Z,8.50
2023-03-27T14:57:56.117Z,8.28
2023-03-27T15:00:30.102Z,8.19
2023-03-27T15:03:04.134Z,8.10
2023-03-27T15:05:32.364Z,8.01
2023-03-27T15:08:02.766Z,8.00
2023-03-27T15:10:52.518Z,7.98
2023-03-27T15:13:58.013Z,7.92
2023-03-27T15:16:35.813Z,7.85
2023-03-27T15:19:13.743Z,7.86
2023-03-27T15:21:57.963Z,7.88
2023-03-27T15:24:33.866Z,7.91
2023-03-27T15:27:01.417Z,7.90
2023-03-27T15:29:44.235Z,7.90
2023-03-27T15:32:20.683Z,7.85
2023-03-27T15:34:52.678Z,7.78
2023-03-27T15:37:23.445Z,7.59
2023-03-27T15:40:13.685Z,7.43
2023-03-27T15:42:52.657Z,7.33
2023-03-27T15:45:23.478Z,7.31
2023-03-27T15:48:19.528Z,7.24
2023-03-27T15:51:29.434Z,7.10
2023-03-27T15:53:57.429Z,6.95
2023-03-27T15:56:38.851Z,6.83
2023-03-27T15:59:07.786Z,6.70
2023-03-27T16:04:39.658Z,6.55
2023-03-27T16:07:14.956Z,6.51
2023-03-27T16:09:54.430Z,6.53
2023-03-27T16:12:26.057Z,6.54
2023-03-27T16:14:54.819Z,6.57
2023-03-27T16:17:25.340Z,6.59
2023-03-27T16:19:59.588Z,6.57
2023-03-27T16:22:28.372Z,6.56
2023-03-27T16:24:58.398Z,6.59
2023-03-27T16:27:27.810Z,6.60
2023-03-27T16:29:54.849Z,6.60
2023-03-27T16:32:23.182Z,6.57
2023-03-27T16:34:56.333Z,6.54
2023-03-27T16:37:24.349Z,6.52
2023-03-27T16:39:51.996Z,6.50
2023-03-27T16:42:23.383Z,6.50
2023-03-27T16:44:52.711Z,6.46
2023-03-27T16:47:23.429Z,6.47
2023-03-27T16:50:07.978Z,6.46
2023-03-27T16:52:39.802Z,6.49
2023-03-27T16:55:10.109Z,6.50
2023-03-27T16:57:37.313Z,6.49
2023-03-27T17:00:05.599Z,6.47
2023-03-27T17:02:35.162Z,6.30
2023-03-27T17:05:06.314Z,6.39
2023-03-27T17:07:33.469Z,6.37
2023-03-27T17:10:00.908Z,6.31
2023-03-27T17:12:29.271Z,6.25
2023-03-27T17:14:57.613Z,6.25
2023-03-27T17:17:24.881Z,6.23
2023-03-27T17:19:51.882Z,6.16
2023-03-27T17:22:18.945Z,6.20
2023-03-27T17:24:56.131Z,6.18
2023-03-27T17:27:24.209Z,6.18
2023-03-27T17:29:53.636Z,6.18
2023-03-27T17:32:20.549Z,6.20
2023-03-27T17:34:49.753Z,6.17
2023-03-27T17:37:18.928Z,6.22
2023-03-27T17:39:46.152Z,6.21
2023-03-27T17:42:14.573Z,6.22
2023-03-27T17:44:43.140Z,6.22
2023-03-27T17:47:10.621Z,6.23
2023-03-27T17:49:37.881Z,6.25
2023-03-27T17:52:08.374Z,6.22
2023-03-27T17:54:35.568Z,6.28
2023-03-27T17:57:03.021Z,6.27
2023-03-27T17:59:32.074Z,6.27
2023-03-27T18:01:59.129Z,6.27
2023-03-27T18:04:26.574Z,6.29
2023-03-27T18:06:53.628Z,6.25
2023-03-27T18:09:21.784Z,6.23
2023-03-27T18:11:48.858Z,6.22
2023-03-27T18:14:15.940Z,6.23
2023-03-27T18:16:43.037Z,6.25
2023-03-27T18:19:10.158Z,6.24
2023-03-27T18:21:37.103Z,6.26
2023-03-27T18:24:04.152Z,6.24
2023-03-27T18:26:31.345Z,6.21
2023-03-27T18:28:58.325Z,6.19
2023-03-27T18:31:25.668Z,6.17
2023-03-27T18:33:52.711Z,6.14
2023-03-27T18:36:20.509Z,6.13
2023-03-27T18:38:49.663Z,6.13
2023-03-27T18:41:16.880Z,6.16
2023-03-27T18:43:44.081Z,6.16
2023-03-27T18:46:16.690Z,6.17
2023-03-27T18:48:44.537Z,6.19
2023-03-27T18:51:12.346Z,6.23
2023-03-27T18:53:39.252Z,6.23
2023-03-27T18:56:06.781Z,6.24
2023-03-27T18:58:34.100Z,6.27
2023-03-27T19:01:01.785Z,6.29
2023-03-27T19:03:30.682Z,6.28
2023-03-27T19:06:00.255Z,6.30
2023-03-27T19:08:27.662Z,6.28
2023-03-27T19:10:57.906Z,6.22
2023-03-27T19:13:43.910Z,6.23
2023-03-27T19:16:31.446Z,6.20
2023-03-27T19:19:25.079Z,6.22
2023-03-27T19:22:12.752Z,6.17
2023-03-27T19:24:50.516Z,6.15
2023-03-27T19:27:23.931Z,6.13
2023-03-27T19:29:52.120Z,6.12
2023-03-27T19:32:19.013Z,6.09
2023-03-27T19:34:46.185Z,6.08
2023-03-27T19:37:13.192Z,6.08
2023-03-27T19:39:40.122Z,6.05
2023-03-27T19:42:07.529Z,6.01
2023-03-27T19:44:38.241Z,6.04
2023-03-27T19:47:05.485Z,6.03
2023-03-27T19:49:32.529Z,6.00
2023-03-27T19:52:13.001Z,6.00
2023-03-27T19:54:39.846Z,5.98
2023-03-27T19:57:07.102Z,5.98
2023-03-27T19:59:34.245Z,5.87
2023-03-27T20:02:01.160Z,5.92
2023-03-27T20:04:28.317Z,5.97
2023-03-27T20:06:59.130Z,5.99
2023-03-27T20:09:28.774Z,5.99
2023-03-27T20:11:55.985Z,6.00
2023-03-27T20:14:22.858Z,6.02
2023-03-27T20:16:51.191Z,6.04
2023-03-27T20:19:19.331Z,6.01
2023-03-27T20:21:47.076Z,5.98
2023-03-27T20:24:19.734Z,5.98
2023-03-27T20:26:57.276Z,5.95
2023-03-27T20:29:26.190Z,5.95
2023-03-27T20:31:53.238Z,5.91
2023-03-27T20:34:22.585Z,5.86
2023-03-27T20:36:53.358Z,5.84
2023-03-27T20:39:49.998Z,5.83
2023-03-27T20:42:23.231Z,5.81
2023-03-27T20:44:58.947Z,5.82
2023-03-27T20:47:26.090Z,5.78
2023-03-27T20:49:53.024Z,5.75
2023-03-27T20:52:19.974Z,5.73
2023-03-27T20:54:48.070Z,5.68
2023-03-27T20:57:17.452Z,5.64
2023-03-27T20:59:46.960Z,5.63
2023-03-27T21:02:16.828Z,5.61
2023-03-27T21:04:44.047Z,5.56
2023-03-27T21:07:10.968Z,5.54
2023-03-27T21:09:38.678Z,5.51
2023-03-27T21:12:05.748Z,5.49
2023-03-27T21:14:32.765Z,5.48
2023-03-27T21:17:00.142Z,5.45
2023-03-27T21:19:27.172Z,5.45
2023-03-27T21:21:54.090Z,5.44
2023-03-27T21:24:21.206Z,5.44
2023-03-27T21:26:48.994Z,5.45
2023-03-27T21:29:16.190Z,5.44
2023-03-27T21:31:43.227Z,5.45
2023-03-27T21:34:10.165Z,5.43
2023-03-27T21:36:38.063Z,5.44
2023-03-27T21:39:05.777Z,5.45
2023-03-27T21:41:33.120Z,5.45
2023-03-27T21:43:59.973Z,5.43
2023-03-27T21:46:26.864Z,5.45
2023-03-27T21:48:53.853Z,5.45
2023-03-27T21:51:20.858Z,5.40
2023-03-27T21:53:48.001Z,5.38
2023-03-27T21:56:14.978Z,5.31
2023-03-27T21:58:41.992Z,5.27
2023-03-27T22:01:08.896Z,5.21
2023-03-27T22:03:36.000Z,5.15
2023-03-27T22:06:11.592Z,5.09
2023-03-27T22:08:40.149Z,5.02
2023-03-27T22:11:07.068Z,4.96
2023-03-27T22:13:37.820Z,4.89
2023-03-27T22:16:12.430Z,4.83
2023-03-27T22:18:39.464Z,4.81
2023-03-27T22:21:32.580Z,4.78
2023-03-27T22:23:59.790Z,4.75
2023-03-27T22:26:31.747Z,4.73
2023-03-27T22:28:58.839Z,4.72
2023-03-27T22:31:26.316Z,4.70
2023-03-27T22:33:53.304Z,4.67
2023-03-27T22:36:22.824Z,4.68
2023-03-27T22:38:49.861Z,4.65
2023-03-27T22:41:16.946Z,4.63
2023-03-27T22:43:43.818Z,4.58
2023-03-27T22:46:12.372Z,4.56
2023-03-27T22:48:45.504Z,4.52
2023-03-27T22:51:13.106Z,4.46
2023-03-27T22:53:40.369Z,4.47
2023-03-27T22:56:07.714Z,4.48
2023-03-27T22:58:34.622Z,4.48
2023-03-27T23:01:01.726Z,4.47
2023-03-27T23:03:29.037Z,4.49
2023-03-27T23:05:56.079Z,4.47
2023-03-27T23:08:29.934Z,4.47
2023-03-27T23:10:57.905Z,4.48
2023-03-27T23:13:26.255Z,4.49
2023-03-27T23:15:53.450Z,4.48
2023-03-27T23:18:23.950Z,4.43
2023-03-27T23:21:01.225Z,4.35
2023-03-27T23:23:29.039Z,4.31
2023-03-27T23:25:57.907Z,4.26
2023-03-27T23:28:25.506Z,4.21
2023-03-27T23:30:53.536Z,4.19
2023-03-27T23:33:21.953Z,4.16
2023-03-27T23:35:48.930Z,4.15
2023-03-27T23:38:15.891Z,4.09
2023-03-27T23:40:42.808Z,4.08
2023-03-27T23:43:09.688Z,4.04
2023-03-27T23:45:36.736Z,4.04
2023-03-27T23:48:03.961Z,4.03
2023-03-27T23:50:31.368Z,4.02
2023-03-27T23:52:58.241Z,4.02
2023-03-27T23:55:25.103Z,4.02
2023-03-27T23:57:52.542Z,4.06
